Time;durP1;ratioP1;P1;durP2;ratioP2;P2;SDS_P1;SDS_P2;PMS_P1;PMS_P2;Temp;Humidity;BMP_temperature;BMP_pressure;BME280_temperature;BME280_humidity;BME280_pressure;Samples;Min_cycle;Max_cycle;Signal;HPM_P1;HPM_P2
2021/05/24 00:01:09;;;;;;;;;;;;;;;8.32;76.55;100801.58;102340;1123;80842;-59
2021/05/24 00:03:14;;;;;;;;;;;;;;;8.38;76.35;100816.23;102336;1123;81435;-58
2021/05/24 00:05:20;;;;;;;;;;;;;;;8.36;77.07;100810.15;102327;1123;80342;-58
2021/05/24 00:07:25;;;;;;;;;;;;;;;8.36;77.16;100813.69;102301;1123;80888;-58
2021/05/24 00:09:33;;;;;;;;;;;;;;;8.41;77.00;100814.03;102324;1123;81640;-59
2021/05/24 00:11:38;;;;;;;;;;;;;;;8.48;77.01;100815.07;102327;1123;80979;-58
2021/05/24 00:13:46;;;;;;;;;;;;;;;8.51;76.87;100812.05;102316;1123;80974;-58
2021/05/24 00:15:52;;;;;;;;;;;;;;;8.55;77.30;100818.77;102331;1123;81099;-58
2021/05/24 00:17:57;;;;;;;;;;;;;;;8.58;77.07;100821.14;102315;1123;81480;-58
2021/05/24 00:20:08;;;;;;;;;;;;;;;8.72;77.24;100819.64;102317;1123;81813;-58
2021/05/24 00:22:16;;;;;;;;;;;;;;;8.80;77.17;100820.48;102336;1123;81712;-58
2021/05/24 00:24:20;;;;;;;;;;;;;;;8.84;77.06;100821.00;102318;1123;81395;-59
2021/05/24 00:26:25;;;;;;;;;;;;;;;8.79;76.96;100826.02;102334;1123;81418;-58
2021/05/24 00:28:32;;;;;;;;;;;;;;;8.76;76.72;100827.20;102332;1124;80937;-59
2021/05/24 00:30:38;;;;;;;;;;;;;;;8.74;76.94;100823.84;102291;1124;81401;-58
2021/05/24 00:32:43;;;;;;;;;;;;;;;8.69;76.98;100831.59;102323;1123;81848;-58
2021/05/24 00:34:47;;;;;;;;;;;;;;;8.65;77.07;100830.22;102323;1123;81636;-59
2021/05/24 00:36:55;;;;;;;;;;;;;;;8.62;76.57;100837.81;102339;1123;80424;-59
2021/05/24 00:39:00;;;;;;;;;;;;;;;8.56;76.86;100841.16;102323;1123;80968;-58
2021/05/24 00:41:05;;;;;;;;;;;;;;;8.50;76.53;100839.97;102285;1123;79998;-58
2021/05/24 00:43:09;;;;;;;;;;;;;;;8.46;76.72;100848.55;102321;1123;82070;-58
2021/05/24 00:45:15;;;;;;;;;;;;;;;8.42;76.59;100850.72;102306;1123;81527;-57
2021/05/24 00:47:20;;;;;;;;;;;;;;;8.35;76.83;100855.06;102361;1123;80554;-57
2021/05/24 00:49:27;;;;;;;;;;;;;;;8.30;76.79;100855.56;102350;1123;81255;-58
2021/05/24 00:51:31;;;;;;;;;;;;;;;8.24;76.65;100858.05;102316;1123;81452;-57
2021/05/24 00:53:36;;;;;;;;;;;;;;;8.19;76.98;100854.98;102342;1123;81686;-58
2021/05/24 00:55:41;;;;;;;;;;;;;;;8.15;77.13;100854.48;102319;1123;81278;-58
2021/05/24 00:57:46;;;;;;;;;;;;;;;8.08;77.18;100852.58;102310;1124;81390;-58
2021/05/24 00:59:51;;;;;;;;;;;;;;;8.04;77.17;100862.84;102282;1124;80936;-57
2021/05/24 01:01:55;;;;;;;;;;;;;;;8.00;77.33;100852.55;102308;1123;82066;-57
2021/05/24 01:04:00;;;;;;;;;;;;;;;8.00;77.21;100861.47;102349;1123;81268;-58
2021/05/24 01:06:05;;;;;;;;;;;;;;;7.96;77.58;100856.59;102308;1123;81569;-58
2021/05/24 01:08:14;;;;;;;;;;;;;;;7.96;77.43;100865.50;102347;1124;81587;-58
2021/05/24 01:10:20;;;;;;;;;;;;;;;7.96;77.60;100870.88;102304;1123;80001;-58
2021/05/24 01:12:24;;;;;;;;;;;;;;;7.99;77.62;100875.09;102342;1123;81245;-59
2021/05/24 01:14:29;;;;;;;;;;;;;;;8.00;77.72;100882.14;102330;1123;80388;-59
2021/05/24 01:16:34;;;;;;;;;;;;;;;7.99;77.75;100869.72;102296;1123;81076;-59
2021/05/24 01:18:41;;;;;;;;;;;;;;;8.08;78.05;100874.11;102345;1123;82177;-56
2021/05/24 01:20:46;;;;;;;;;;;;;;;8.09;77.74;100865.05;102322;1123;80859;-59
2021/05/24 01:22:58;;;;;;;;;;;;;;;8.06;77.91;100871.59;102329;1123;81254;-59
2021/05/24 01:25:03;;;;;;;;;;;;;;;8.06;78.03;100873.44;102289;1124;81358;-59
2021/05/24 01:27:12;;;;;;;;;;;;;;;8.10;78.04;100880.19;102333;1123;81316;-59
2021/05/24 01:29:19;;;;;;;;;;;;;;;8.10;78.42;100872.94;102318;1123;82144;-59
2021/05/24 01:31:23;;;;;;;;;;;;;;;8.16;78.36;100872.30;102363;1123;81553;-59
2021/05/24 01:33:28;;;;;;;;;;;;;;;8.20;78.30;100883.59;102324;1123;80562;-59
2021/05/24 01:35:33;;;;;;;;;;;;;;;8.19;78.41;100882.74;102309;1123;81071;-60
2021/05/24 01:37:42;;;;;;;;;;;;;;;8.21;78.47;100885.28;102329;1123;80509;-60
2021/05/24 01:39:49;;;;;;;;;;;;;;;8.18;78.20;100885.61;102335;1123;81383;-59
2021/05/24 01:41:54;;;;;;;;;;;;;;;8.17;78.41;100892.83;102340;1123;81130;-59
2021/05/24 01:43:59;;;;;;;;;;;;;;;8.16;78.20;100884.91;102348;1123;80180;-60
2021/05/24 01:46:05;;;;;;;;;;;;;;;8.14;78.36;100886.92;102330;1123;81208;-60
2021/05/24 01:48:11;;;;;;;;;;;;;;;8.11;78.29;100895.31;102318;1124;80877;-60
2021/05/24 01:50:16;;;;;;;;;;;;;;;8.12;78.27;100886.25;102322;1123;80245;-60
2021/05/24 01:52:21;;;;;;;;;;;;;;;8.12;78.16;100886.25;102317;1123;81105;-60
2021/05/24 01:54:25;;;;;;;;;;;;;;;8.09;78.30;100881.19;102355;1124;81376;-60
2021/05/24 01:56:30;;;;;;;;;;;;;;;8.10;78.32;100886.39;102315;1124;81182;-59
2021/05/24 01:58:35;;;;;;;;;;;;;;;8.03;78.18;100885.37;102362;1123;81705;-58
2021/05/24 02:00:40;;;;;;;;;;;;;;;8.02;78.29;100880.16;102334;1123;81183;-58
2021/05/24 02:02:49;;;;;;;;;;;;;;;7.98;78.38;100879.63;102316;1123;81440;-58
2021/05/24 02:04:53;;;;;;;;;;;;;;;7.95;78.39;100889.86;102343;1123;81131;-58
2021/05/24 02:06:58;;;;;;;;;;;;;;;7.95;78.36;100884.48;102315;1123;80971;-58
2021/05/24 02:09:07;;;;;;;;;;;;;;;7.94;78.57;100883.63;102340;1123;81287;-58
2021/05/24 02:11:15;;;;;;;;;;;;;;;7.95;78.55;100885.33;102347;1123;81603;-59
2021/05/24 02:13:20;;;;;;;;;;;;;;;7.93;78.51;100895.41;102325;1123;80860;-59
2021/05/24 02:15:27;;;;;;;;;;;;;;;7.90;78.49;100900.27;102702;1123;80665;-59
2021/05/24 02:17:32;;;;;;;;;;;;;;;7.87;78.70;100905.95;102327;1123;81547;-59
2021/05/24 02:19:37;;;;;;;;;;;;;;;7.85;78.76;100899.90;102306;1123;80160;-59
2021/05/24 02:21:45;;;;;;;;;;;;;;;7.86;78.74;100904.26;102317;1123;81253;-59
2021/05/24 02:23:52;;;;;;;;;;;;;;;7.86;78.46;100901.56;102332;1123;81121;-58
2021/05/24 02:26:00;;;;;;;;;;;;;;;7.87;78.81;100903.27;102317;1123;81572;-58
2021/05/24 02:28:05;;;;;;;;;;;;;;;7.87;78.67;100905.95;102319;1123;81844;-59
2021/05/24 02:30:13;;;;;;;;;;;;;;;7.86;78.35;100902.41;102340;1123;81053;-58
2021/05/24 02:32:18;;;;;;;;;;;;;;;7.86;78.50;100906.95;102328;1123;81268;-58
2021/05/24 02:34:22;;;;;;;;;;;;;;;7.81;78.58;100910.13;102334;1123;82551;-59
2021/05/24 02:36:31;;;;;;;;;;;;;;;7.78;78.39;100910.44;102311;1123;80945;-58
2021/05/24 02:38:35;;;;;;;;;;;;;;;7.77;78.39;100910.61;102297;1123;81801;-58
2021/05/24 02:40:40;;;;;;;;;;;;;;;7.70;78.59;100913.08;102308;1123;80962;-59
2021/05/24 02:42:45;;;;;;;;;;;;;;;7.67;78.45;100913.39;102312;1123;80294;-59
2021/05/24 02:44:52;;;;;;;;;;;;;;;7.66;78.39;100920.61;102337;1123;81131;-58
2021/05/24 02:46:57;;;;;;;;;;;;;;;7.64;78.55;100917.24;102333;1123;81338;-58
2021/05/24 02:49:02;;;;;;;;;;;;;;;7.62;78.40;100921.09;102333;1123;80365;-58
2021/05/24 02:51:07;;;;;;;;;;;;;;;7.61;78.68;100917.55;102314;1123;81055;-58
2021/05/24 02:53:12;;;;;;;;;;;;;;;7.62;78.58;100923.78;102329;1123;81728;-58
2021/05/24 02:55:17;;;;;;;;;;;;;;;7.59;78.72;100921.41;102293;1123;81429;-59
2021/05/24 02:57:21;;;;;;;;;;;;;;;7.58;78.69;100920.55;102335;1123;81734;-59
2021/05/24 02:59:26;;;;;;;;;;;;;;;7.54;78.66;100939.86;102311;1123;81438;-58
2021/05/24 03:01:33;;;;;;;;;;;;;;;7.51;78.79;100943.70;102307;1123;81813;-58
2021/05/24 03:03:42;;;;;;;;;;;;;;;7.51;78.67;100946.39;102313;1123;82596;-59
2021/05/24 03:05:46;;;;;;;;;;;;;;;7.55;78.93;100944.25;102295;1123;80869;-59
2021/05/24 03:07:54;;;;;;;;;;;;;;;7.57;78.97;100939.55;102318;1123;81551;-59
2021/05/24 03:09:59;;;;;;;;;;;;;;;7.61;79.12;100947.13;102312;1123;81740;-58
2021/05/24 03:12:08;;;;;;;;;;;;;;;7.70;79.28;100948.89;102293;1123;80278;-58
2021/05/24 03:14:13;;;;;;;;;;;;;;;7.78;79.04;100952.63;102317;1123;80551;-59
2021/05/24 03:16:18;;;;;;;;;;;;;;;7.82;79.15;100941.41;102304;1124;81487;-59
2021/05/24 03:18:25;;;;;;;;;;;;;;;7.87;79.13;100948.99;102305;1123;81514;-59
2021/05/24 03:20:30;;;;;;;;;;;;;;;7.94;79.04;100953.57;102308;1123;80282;-58
2021/05/24 03:22:35;;;;;;;;;;;;;;;8.04;79.36;100953.48;102313;1124;82070;-58
2021/05/24 03:24:42;;;;;;;;;;;;;;;8.10;79.22;100959.05;102330;1122;81328;-57
2021/05/24 03:26:49;;;;;;;;;;;;;;;8.17;79.06;100959.26;102443;1120;81833;-58
2021/05/24 03:28:54;;;;;;;;;;;;;;;8.21;79.27;100963.34;102427;1121;79977;-59
2021/05/24 03:30:58;;;;;;;;;;;;;;;8.31;79.11;100964.08;102444;1120;81633;-58
2021/05/24 03:33:03;;;;;;;;;;;;;;;8.43;79.58;100970.03;102391;1120;81878;-59
2021/05/24 03:35:12;;;;;;;;;;;;;;;8.57;79.56;100972.93;102422;1120;81757;-59
2021/05/24 03:37:16;;;;;;;;;;;;;;;9.52;79.85;100967.07;102474;1121;81275;-59
2021/05/24 03:39:21;;;;;;;;;;;;;;;11.16;79.15;100955.39;102439;1120;81639;-58
2021/05/24 03:41:26;;;;;;;;;;;;;;;12.64;78.34;100969.02;102444;1120;81604;-58
2021/05/24 03:43:31;;;;;;;;;;;;;;;13.81;76.98;100954.23;102462;1120;80124;-58
2021/05/24 03:45:37;;;;;;;;;;;;;;;14.92;75.58;100964.94;102492;1120;80835;-59
2021/05/24 03:47:45;;;;;;;;;;;;;;;15.92;74.02;100966.63;102337;1123;81518;-59
2021/05/24 03:49:50;;;;;;;;;;;;;;;16.71;72.10;100963.77;102485;1120;80533;-59
2021/05/24 03:51:57;;;;;;;;;;;;;;;17.44;70.83;100964.24;102448;1120;79968;-58
2021/05/24 03:54:02;;;;;;;;;;;;;;;18.01;69.22;100971.39;102335;1123;81887;-58
2021/05/24 03:56:07;;;;;;;;;;;;;;;18.69;67.55;100978.50;102316;1123;80691;-59
2021/05/24 03:58:11;;;;;;;;;;;;;;;19.19;65.86;100987.36;102453;1120;81603;-58
2021/05/24 04:00:18;;;;;;;;;;;;;;;19.30;63.97;100978.35;102426;1121;80544;-60
2021/05/24 04:02:23;;;;;;;;;;;;;;;19.62;62.71;100978.11;102448;1120;80288;-60
2021/05/24 04:04:31;;;;;;;;;;;;;;;20.06;61.70;100980.34;102465;1121;82074;-59
2021/05/24 04:06:37;;;;;;;;;;;;;;;20.52;59.68;100985.02;102467;1120;81329;-58
2021/05/24 04:08:44;;;;;;;;;;;;;;;20.59;58.66;100988.48;102443;1121;82313;-58
2021/05/24 04:10:52;;;;;;;;;;;;;;;20.46;57.75;100984.06;102431;1120;81617;-58
2021/05/24 04:12:57;;;;;;;;;;;;;;;20.51;56.50;100988.86;102426;1120;80685;-58
2021/05/24 04:15:02;;;;;;;;;;;;;;;20.14;55.42;100987.38;102454;1120;80585;-59
2021/05/24 04:17:06;;;;;;;;;;;;;;;20.07;55.75;100989.41;102451;1120;80164;-61
2021/05/24 04:19:11;;;;;;;;;;;;;;;20.44;54.70;100991.71;102439;1120;81227;-59
2021/05/24 04:21:17;;;;;;;;;;;;;;;21.08;54.15;100993.42;102298;1123;81458;-60
2021/05/24 04:23:21;;;;;;;;;;;;;;;21.55;53.56;100996.82;102467;1120;81448;-60
2021/05/24 04:25:29;;;;;;;;;;;;;;;21.69;52.54;100989.09;102314;1124;81171;-60
2021/05/24 04:27:33;;;;;;;;;;;;;;;21.25;52.04;100998.15;102452;1120;80756;-60
2021/05/24 04:29:41;;;;;;;;;;;;;;;20.99;52.49;100999.50;102439;1120;81496;-57
2021/05/24 04:31:46;;;;;;;;;;;;;;;20.86;52.12;101005.27;102318;1123;80349;-58
2021/05/24 04:33:54;;;;;;;;;;;;;;;20.97;51.78;101005.25;102325;1123;80799;-59
2021/05/24 04:35:58;;;;;;;;;;;;;;;21.63;50.62;101010.17;102475;1121;82306;-59
2021/05/24 04:38:06;;;;;;;;;;;;;;;21.89;50.49;101006.00;102450;1120;81430;-58
2021/05/24 04:40:12;;;;;;;;;;;;;;;22.37;50.11;100997.13;102455;1120;81257;-59
2021/05/24 04:42:19;;;;;;;;;;;;;;;22.83;48.91;101007.74;102477;1120;81678;-59
2021/05/24 04:44:24;;;;;;;;;;;;;;;23.29;48.72;101006.38;102457;1120;81406;-58
2021/05/24 04:46:31;;;;;;;;;;;;;;;23.76;48.01;101006.64;102442;1120;81078;-57
2021/05/24 04:48:36;;;;;;;;;;;;;;;24.32;46.50;101005.23;102445;1120;80677;-59
2021/05/24 04:50:41;;;;;;;;;;;;;;;24.75;46.00;101006.88;102460;1120;80670;-59
2021/05/24 04:52:45;;;;;;;;;;;;;;;24.94;45.00;101001.77;102493;1120;80873;-59
2021/05/24 04:54:50;;;;;;;;;;;;;;;25.33;44.28;100999.41;102437;1120;81569;-59
2021/05/24 04:56:55;;;;;;;;;;;;;;;25.11;44.00;101000.45;102425;1120;81546;-59
2021/05/24 04:59:04;;;;;;;;;;;;;;;25.30;42.49;100999.98;102480;1120;80153;-59
2021/05/24 05:01:08;;;;;;;;;;;;;;;25.64;41.46;101010.33;102496;1120;81563;-61
2021/05/24 05:03:16;;;;;;;;;;;;;;;25.88;41.72;100995.94;102455;1120;81650;-60
2021/05/24 05:05:22;;;;;;;;;;;;;;;26.17;41.20;101002.64;102461;1121;81812;-58
2021/05/24 05:07:29;;;;;;;;;;;;;;;26.51;40.43;100995.39;102322;1124;81157;-58
2021/05/24 05:09:34;;;;;;;;;;;;;;;26.72;40.08;101002.56;102425;1120;81787;-59
2021/05/24 05:11:38;;;;;;;;;;;;;;;26.72;39.34;101001.73;102438;1121;80524;-59
2021/05/24 05:13:46;;;;;;;;;;;;;;;27.46;37.96;100998.97;102431;1120;80667;-59
2021/05/24 05:15:51;;;;;;;;;;;;;;;27.51;38.43;100998.94;102324;1124;80713;-62
2021/05/24 05:17:56;;;;;;;;;;;;;;;28.14;36.81;100990.72;102430;1120;80008;-59
2021/05/24 05:20:01;;;;;;;;;;;;;;;28.14;36.95;100993.50;102527;1120;79958;-59
2021/05/24 05:22:06;;;;;;;;;;;;;;;28.29;35.73;100994.20;102445;1120;80874;-59
2021/05/24 05:24:13;;;;;;;;;;;;;;;28.10;35.99;100991.30;102455;1120;82626;-59
2021/05/24 05:26:18;;;;;;;;;;;;;;;28.24;36.26;100988.67;102424;1121;81585;-58
2021/05/24 05:28:24;;;;;;;;;;;;;;;27.87;35.35;100993.97;102450;1121;80278;-58
2021/05/24 05:30:29;;;;;;;;;;;;;;;27.94;35.28;100991.68;102479;1120;81355;-58
2021/05/24 05:32:34;;;;;;;;;;;;;;;28.01;35.50;100987.48;102449;1121;81391;-58
2021/05/24 05:34:39;;;;;;;;;;;;;;;28.25;35.03;100998.68;102472;1120;81612;-58
2021/05/24 05:36:43;;;;;;;;;;;;;;;29.13;35.07;100998.29;102458;1120;81790;-59
2021/05/24 05:38:48;;;;;;;;;;;;;;;29.07;34.30;100994.75;102436;1120;81128;-57
2021/05/24 05:40:55;;;;;;;;;;;;;;;29.38;33.26;100995.20;102421;1120;81715;-57
2021/05/24 05:43:00;;;;;;;;;;;;;;;29.43;33.77;100991.51;102428;1120;80404;-59
2021/05/24 05:45:10;;;;;;;;;;;;;;;29.55;32.84;100987.17;102296;1123;81896;-58
2021/05/24 05:47:15;;;;;;;;;;;;;;;30.22;31.47;100993.33;102476;1121;80031;-58
2021/05/24 05:49:21;;;;;;;;;;;;;;;29.91;31.88;100989.42;102314;1123;80629;-57
2021/05/24 05:51:25;;;;;;;;;;;;;;;30.04;31.73;100985.86;102305;1123;81038;-58
2021/05/24 05:53:30;;;;;;;;;;;;;;;30.24;31.35;100991.09;102457;1121;82074;-57
2021/05/24 05:55:35;;;;;;;;;;;;;;;30.42;31.35;101001.38;102470;1120;81003;-58
2021/05/24 05:57:40;;;;;;;;;;;;;;;30.79;30.92;100992.84;102432;1121;80048;-58
2021/05/24 05:59:44;;;;;;;;;;;;;;;30.37;29.92;100995.90;102445;1120;80679;-57
2021/05/24 06:01:52;;;;;;;;;;;;;;;30.18;30.04;100993.14;102322;1123;82441;-58
2021/05/24 06:03:58;;;;;;;;;;;;;;;30.26;29.94;100994.39;102441;1121;82465;-59
2021/05/24 06:06:03;;;;;;;;;;;;;;;30.54;29.82;100998.94;102453;1121;81148;-59
2021/05/24 06:08:08;;;;;;;;;;;;;;;30.69;30.26;101004.20;102470;1120;80924;-59
2021/05/24 06:10:15;;;;;;;;;;;;;;;31.09;29.17;101005.40;102464;1120;81768;-58
2021/05/24 06:12:20;;;;;;;;;;;;;;;31.51;27.96;101012.59;102349;1123;81552;-58
2021/05/24 06:14:25;;;;;;;;;;;;;;;31.47;28.77;101011.58;102321;1123;80846;-60
2021/05/24 06:16:32;;;;;;;;;;;;;;;31.67;28.12;101019.50;102449;1120;81898;-59
2021/05/24 06:18:36;;;;;;;;;;;;;;;31.39;27.76;101018.70;102321;1123;80133;-60
2021/05/24 06:20:46;;;;;;;;;;;;;;;31.61;28.08;101025.51;102459;1120;80050;-59
2021/05/24 06:22:51;;;;;;;;;;;;;;;31.95;27.16;101028.59;102496;1120;81443;-60
2021/05/24 06:24:56;;;;;;;;;;;;;;;32.06;26.38;101030.86;102495;1120;81813;-59
2021/05/24 06:27:03;;;;;;;;;;;;;;;32.13;27.10;101018.41;102460;1120;82348;-58
2021/05/24 06:29:08;;;;;;;;;;;;;;;32.43;26.27;101021.26;102464;1120;81018;-59
2021/05/24 06:31:13;;;;;;;;;;;;;;;33.00;26.47;101021.38;102470;1120;80784;-59
2021/05/24 06:33:17;;;;;;;;;;;;;;;33.01;25.77;101014.64;102485;1121;81381;-57
2021/05/24 06:35:22;;;;;;;;;;;;;;;32.63;25.48;101017.92;102483;1121;80780;-57
2021/05/24 06:37:30;;;;;;;;;;;;;;;32.73;25.39;101024.40;102498;1120;80756;-58
2021/05/24 06:39:34;;;;;;;;;;;;;;;32.73;24.79;101027.20;102455;1120;82290;-58
2021/05/24 06:41:39;;;;;;;;;;;;;;;32.63;24.92;101029.12;102472;1120;80605;-59
2021/05/24 06:43:44;;;;;;;;;;;;;;;32.75;24.73;101025.72;102507;1121;79745;-57
2021/05/24 06:45:49;;;;;;;;;;;;;;;32.82;24.65;101023.30;102472;1120;80166;-56
2021/05/24 06:47:53;;;;;;;;;;;;;;;32.96;24.41;101025.99;102490;1121;80008;-56
2021/05/24 06:49:58;;;;;;;;;;;;;;;33.30;24.26;101030.89;102480;1120;80762;-57
2021/05/24 06:52:03;;;;;;;;;;;;;;;33.32;23.89;101023.01;102442;1121;82369;-56
2021/05/24 06:54:08;;;;;;;;;;;;;;;32.86;23.93;101026.27;102452;1120;82561;-60
2021/05/24 06:56:13;;;;;;;;;;;;;;;32.86;24.41;101018.70;102451;1120;81853;-57
2021/05/24 06:58:17;;;;;;;;;;;;;;;33.22;23.82;101018.52;102467;1120;82581;-57
2021/05/24 07:00:22;;;;;;;;;;;;;;;33.65;23.89;101024.25;102429;1121;80616;-56
2021/05/24 07:02:29;;;;;;;;;;;;;;;33.19;23.15;101031.20;102453;1120;81048;-57
2021/05/24 07:04:34;;;;;;;;;;;;;;;32.77;23.29;101025.42;102299;1123;81950;-58
2021/05/24 07:06:39;;;;;;;;;;;;;;;32.33;24.11;101029.09;102473;1120;80462;-59
2021/05/24 07:08:46;;;;;;;;;;;;;;;32.88;23.83;101027.59;102345;1123;80540;-57
2021/05/24 07:10:51;;;;;;;;;;;;;;;32.72;23.50;101028.36;102466;1121;79883;-57
2021/05/24 07:12:56;;;;;;;;;;;;;;;32.76;23.53;101030.19;102450;1120;81783;-57
2021/05/24 07:15:05;;;;;;;;;;;;;;;32.81;23.67;101043.20;102479;1120;80182;-58
2021/05/24 07:17:10;;;;;;;;;;;;;;;32.83;23.51;101036.13;102461;1120;80682;-58
2021/05/24 07:19:14;;;;;;;;;;;;;;;32.86;23.70;101046.69;102469;1120;82498;-60
2021/05/24 07:21:19;;;;;;;;;;;;;;;33.33;23.66;101045.08;102454;1120;81310;-61
2021/05/24 07:23:26;;;;;;;;;;;;;;;33.52;23.13;101048.42;102475;1120;82437;-57
2021/05/24 07:25:31;;;;;;;;;;;;;;;33.87;22.24;101054.11;102436;1120;81936;-59
2021/05/24 07:27:36;;;;;;;;;;;;;;;33.65;22.48;101049.48;102346;1123;82660;-59
2021/05/24 07:29:41;;;;;;;;;;;;;;;33.52;22.40;101047.59;102477;1120;81177;-59
2021/05/24 07:31:48;;;;;;;;;;;;;;;33.24;22.84;101058.23;102427;1121;80677;-59
2021/05/24 07:33:56;;;;;;;;;;;;;;;33.58;22.32;101057.52;102306;1123;81443;-57
2021/05/24 07:36:00;;;;;;;;;;;;;;;33.32;23.02;101059.42;102325;1123;80612;-57
2021/05/24 07:38:05;;;;;;;;;;;;;;;32.66;22.89;101059.27;102324;1123;82319;-58
2021/05/24 07:40:14;;;;;;;;;;;;;;;32.62;23.52;101052.67;102492;1120;81890;-58
2021/05/24 07:42:18;;;;;;;;;;;;;;;33.05;23.59;101061.30;102479;1121;81549;-58
2021/05/24 07:44:23;;;;;;;;;;;;;;;32.97;23.14;101064.02;102474;1121;81502;-59
2021/05/24 07:46:28;;;;;;;;;;;;;;;33.30;23.79;101068.14;102474;1120;81783;-59
2021/05/24 07:48:32;;;;;;;;;;;;;;;33.15;22.05;101077.83;102471;1120;81777;-60
2021/05/24 07:50:37;;;;;;;;;;;;;;;32.57;23.56;101083.59;102470;1120;81209;-58
2021/05/24 07:52:41;;;;;;;;;;;;;;;32.72;22.81;101082.34;102475;1120;80962;-60
2021/05/24 07:54:46;;;;;;;;;;;;;;;32.59;23.08;101072.06;102436;1120;81298;-61
2021/05/24 07:56:51;;;;;;;;;;;;;;;32.71;23.31;101072.31;102452;1120;81520;-63
2021/05/24 07:58:55;;;;;;;;;;;;;;;32.58;23.86;101082.42;102474;1120;81697;-63
2021/05/24 08:01:00;;;;;;;;;;;;;;;33.16;23.50;101068.25;102448;1120;82559;-60
2021/05/24 08:03:05;;;;;;;;;;;;;;;33.09;22.58;101070.72;102470;1120;80528;-63
2021/05/24 08:05:12;;;;;;;;;;;;;;;32.34;23.12;101075.48;102484;1120;80915;-65
2021/05/24 08:07:20;;;;;;;;;;;;;;;32.53;22.86;101076.97;102450;1120;81693;-63
2021/05/24 08:09:24;;;;;;;;;;;;;;;32.40;23.43;101071.41;102440;1120;80987;-63
2021/05/24 08:11:32;;;;;;;;;;;;;;;32.75;23.95;101072.47;102455;1121;80141;-63
2021/05/24 08:13:37;;;;;;;;;;;;;;;32.86;23.61;101065.45;102347;1123;81998;-59
2021/05/24 08:15:42;;;;;;;;;;;;;;;32.61;22.75;101067.80;102462;1120;81711;-59
2021/05/24 08:17:49;;;;;;;;;;;;;;;32.51;23.53;101075.60;102446;1120;81219;-58
2021/05/24 08:19:54;;;;;;;;;;;;;;;31.67;23.18;101069.80;102452;1120;81460;-59
2021/05/24 08:21:58;;;;;;;;;;;;;;;31.60;23.67;101074.13;102476;1120;81167;-59
2021/05/24 08:24:04;;;;;;;;;;;;;;;32.39;24.04;101070.58;102467;1121;81124;-60
2021/05/24 08:26:09;;;;;;;;;;;;;;;32.26;24.24;101076.24;102475;1121;80973;-59
2021/05/24 08:28:16;;;;;;;;;;;;;;;32.08;24.03;101073.30;102433;1122;81121;-60
2021/05/24 08:30:22;;;;;;;;;;;;;;;32.67;23.90;101074.09;102473;1121;80991;-61
2021/05/24 08:32:28;;;;;;;;;;;;;;;33.24;22.94;101069.43;102474;1121;80656;-63
2021/05/24 08:34:33;;;;;;;;;;;;;;;33.46;22.52;101062.92;102471;1120;81303;-61
2021/05/24 08:36:38;;;;;;;;;;;;;;;33.41;22.46;101061.08;102456;1120;81280;-61
2021/05/24 08:38:43;;;;;;;;;;;;;;;31.91;22.22;101066.72;102512;1120;81725;-61
2021/05/24 08:40:48;;;;;;;;;;;;;;;29.93;23.54;101065.17;102444;1120;79955;-61
2021/05/24 08:42:56;;;;;;;;;;;;;;;28.45;24.95;101070.77;102432;1121;82442;-61
2021/05/24 08:45:02;;;;;;;;;;;;;;;27.76;26.37;101079.30;102523;1121;81184;-58
2021/05/24 08:47:07;;;;;;;;;;;;;;;27.79;27.42;101077.90;102465;1120;80811;-58
2021/05/24 08:49:11;;;;;;;;;;;;;;;28.92;25.80;101074.79;102508;1120;80416;-58
2021/05/24 08:51:16;;;;;;;;;;;;;;;29.18;26.28;101078.93;102319;1123;81166;-58
2021/05/24 08:53:29;;;;;;;;;;;;;;;29.76;26.30;101085.17;102455;1121;80938;-58
2021/05/24 08:55:37;;;;;;;;;;;;;;;30.00;26.29;101079.55;102471;1120;80251;-58
2021/05/24 08:57:43;;;;;;;;;;;;;;;30.36;25.48;101078.72;102452;1120;81244;-59
2021/05/24 08:59:47;;;;;;;;;;;;;;;30.60;25.32;101059.05;102472;1120;82840;-59
2021/05/24 09:01:52;;;;;;;;;;;;;;;31.30;25.49;101061.63;102429;1120;80544;-57
2021/05/24 09:04:03;;;;;;;;;;;;;;;31.51;25.05;101065.66;102316;1123;81280;-59
2021/05/24 09:06:10;;;;;;;;;;;;;;;30.65;24.45;101058.98;102482;1120;82058;-57
2021/05/24 09:08:15;;;;;;;;;;;;;;;29.27;24.97;101066.06;102420;1120;80620;-59
2021/05/24 09:10:20;;;;;;;;;;;;;;;28.28;26.28;101063.96;102462;1121;82337;-59
2021/05/24 09:12:31;;;;;;;;;;;;;;;27.35;27.78;101062.00;102487;1121;80679;-60
2021/05/24 09:14:38;;;;;;;;;;;;;;;27.63;28.49;101062.45;102426;1120;81108;-59
2021/05/24 09:16:43;;;;;;;;;;;;;;;28.13;28.13;101059.34;102441;1121;81052;-59
2021/05/24 09:19:15;;;;;;;;;;;;;;;28.38;27.90;101053.58;102350;1123;81538;-60
2021/05/24 09:21:21;;;;;;;;;;;;;;;27.87;27.58;101055.08;102322;1123;80303;-58
2021/05/24 09:23:31;;;;;;;;;;;;;;;26.89;28.17;101049.41;102455;1120;81782;-57
2021/05/24 09:25:53;;;;;;;;;;;;;;;25.89;29.56;101059.36;102469;1121;82614;-58
2021/05/24 09:27:58;;;;;;;;;;;;;;;25.49;30.28;101059.27;102448;1121;81680;-54
2021/05/24 09:30:04;;;;;;;;;;;;;;;25.07;30.95;101057.41;102358;1123;81120;-58
2021/05/24 09:32:14;;;;;;;;;;;;;;;24.86;31.37;101046.52;102461;1121;80721;-58
2021/05/24 09:34:22;;;;;;;;;;;;;;;24.57;32.42;101046.84;102437;1120;80373;-56
2021/05/24 09:36:27;;;;;;;;;;;;;;;24.36;33.11;101039.52;102458;1120;81367;-56
2021/05/24 09:38:40;;;;;;;;;;;;;;;23.98;33.48;101040.52;102465;1120;81372;-58
2021/05/24 09:40:59;;;;;;;;;;;;;;;23.69;33.38;101039.14;102472;1121;80814;-57
2021/05/24 09:43:08;;;;;;;;;;;;;;;23.56;34.45;101031.28;102309;1123;81665;-55
2021/05/24 09:45:17;;;;;;;;;;;;;;;23.65;34.33;101035.22;102318;1123;81664;-55
2021/05/24 09:47:36;;;;;;;;;;;;;;;24.14;34.18;101026.90;102469;1120;81831;-55
2021/05/24 09:49:40;;;;;;;;;;;;;;;24.38;34.35;101020.74;102446;1121;80590;-56
2021/05/24 09:51:47;;;;;;;;;;;;;;;24.68;33.88;101020.11;102328;1124;81558;-57
2021/05/24 09:54:03;;;;;;;;;;;;;;;24.85;33.68;101015.27;102336;1124;81706;-56
2021/05/24 09:56:10;;;;;;;;;;;;;;;24.90;33.69;101018.05;102462;1121;82578;-55
2021/05/24 09:58:15;;;;;;;;;;;;;;;25.16;33.40;101022.59;102498;1120;80374;-58
2021/05/24 10:00:28;;;;;;;;;;;;;;;25.38;33.14;101018.81;102325;1123;81501;-55
2021/05/24 10:02:33;;;;;;;;;;;;;;;25.45;33.08;101014.67;102492;1120;80925;-56
2021/05/24 10:04:40;;;;;;;;;;;;;;;25.43;33.43;101019.66;102482;1120;81857;-56
2021/05/24 10:06:45;;;;;;;;;;;;;;;25.43;33.28;101022.42;102461;1120;80723;-58
2021/05/24 10:08:50;;;;;;;;;;;;;;;25.27;32.53;101019.88;102477;1121;81282;-55
2021/05/24 10:10:56;;;;;;;;;;;;;;;25.06;32.75;101028.08;102484;1121;81183;-56
2021/05/24 10:13:01;;;;;;;;;;;;;;;25.20;32.66;101023.72;102306;1123;80455;-56
2021/05/24 10:15:09;;;;;;;;;;;;;;;25.15;32.65;101023.70;102353;1123;81338;-57
2021/05/24 10:17:17;;;;;;;;;;;;;;;25.08;32.60;101013.97;102487;1120;81960;-57
2021/05/24 10:19:24;;;;;;;;;;;;;;;24.83;33.12;101011.92;102463;1121;81171;-55
2021/05/24 10:21:29;;;;;;;;;;;;;;;24.87;33.12;101014.98;102457;1121;81334;-54
2021/05/24 10:23:34;;;;;;;;;;;;;;;24.95;33.21;101009.78;102472;1121;81648;-55
2021/05/24 10:25:42;;;;;;;;;;;;;;;25.09;33.03;101015.65;102478;1120;81372;-56
2021/05/24 10:27:47;;;;;;;;;;;;;;;25.19;33.29;101016.52;102497;1121;81254;-53
2021/05/24 10:29:51;;;;;;;;;;;;;;;24.96;32.04;101021.68;102458;1120;81281;-59
2021/05/24 10:31:56;;;;;;;;;;;;;;;24.89;31.67;101019.14;102467;1120;81174;-56
2021/05/24 10:34:12;;;;;;;;;;;;;;;24.66;32.12;101011.27;102495;1120;81485;-55
2021/05/24 10:36:20;;;;;;;;;;;;;;;24.91;32.17;101014.20;102447;1120;81329;-56
2021/05/24 10:38:35;;;;;;;;;;;;;;;24.64;31.83;101007.91;102485;1120;81358;-56
2021/05/24 10:40:45;;;;;;;;;;;;;;;24.62;32.57;101015.64;102311;1123;80815;-56
2021/05/24 10:42:52;;;;;;;;;;;;;;;24.51;32.70;101009.23;102485;1120;79710;-58